sensor_id;sensor_type;location;lat;lon;timestamp;temperature;humidity
19242;DHT22;9755;47.790;9.620;2022-12-11T00:00:37;-0.90;1.00
19242;DHT22;9755;47.790;9.620;2022-12-11T00:03:04;-0.90;1.00
19242;DHT22;9755;47.790;9.620;2022-12-11T00:05:31;-0.90;1.00
19242;DHT22;9755;47.790;9.620;2022-12-11T00:07:59;-0.90;1.00
19242;DHT22;9755;47.790;9.620;2022-12-11T00:10:27;-0.80;1.00
19242;DHT22;9755;47.790;9.620;2022-12-11T00:12:54;-0.90;1.00
19242;DHT22;9755;47.790;9.620;2022-12-11T00:15:21;-0.90;1.00
19242;DHT22;9755;47.790;9.620;2022-12-11T00:17:49;-0.90;1.00
19242;DHT22;9755;47.790;9.620;2022-12-11T00:20:16;-0.90;1.00
19242;DHT22;9755;47.790;9.620;2022-12-11T00:22:43;-0.90;1.00
19242;DHT22;9755;47.790;9.620;2022-12-11T00:25:10;-1.00;1.00
19242;DHT22;9755;47.790;9.620;2022-12-11T00:27:38;-0.90;1.00
19242;DHT22;9755;47.790;9.620;2022-12-11T00:30:06;-0.90;1.00
19242;DHT22;9755;47.790;9.620;2022-12-11T00:32:34;-0.90;1.00
19242;DHT22;9755;47.790;9.620;2022-12-11T00:35:01;-0.90;1.00
19242;DHT22;9755;47.790;9.620;2022-12-11T00:37:28;-0.90;1.00
19242;DHT22;9755;47.790;9.620;2022-12-11T00:39:55;-1.00;1.00
19242;DHT22;9755;47.790;9.620;2022-12-11T00:42:22;-1.00;1.00
19242;DHT22;9755;47.790;9.620;2022-12-11T00:44:50;-0.90;1.00
19242;DHT22;9755;47.790;9.620;2022-12-11T00:47:18;-0.90;1.00
19242;DHT22;9755;47.790;9.620;2022-12-11T00:49:45;-0.90;1.00
19242;DHT22;9755;47.790;9.620;2022-12-11T00:52:12;-0.90;1.00
19242;DHT22;9755;47.790;9.620;2022-12-11T00:54:39;-0.90;1.00
19242;DHT22;9755;47.790;9.620;2022-12-11T00:57:06;-0.90;1.00
19242;DHT22;9755;47.790;9.620;2022-12-11T00:59:33;-0.90;1.00
19242;DHT22;9755;47.790;9.620;2022-12-11T01:02:01;-0.90;1.00
19242;DHT22;9755;47.790;9.620;2022-12-11T01:04:28;-0.90;1.00
19242;DHT22;9755;47.790;9.620;2022-12-11T01:06:55;-0.90;1.00
19242;DHT22;9755;47.790;9.620;2022-12-11T01:09:23;-0.90;1.00
19242;DHT22;9755;47.790;9.620;2022-12-11T01:12:07;-0.90;1.00
19242;DHT22;9755;47.790;9.620;2022-12-11T01:14:34;-0.90;1.00
19242;DHT22;9755;47.790;9.620;2022-12-11T01:17:03;-0.90;1.00
19242;DHT22;9755;47.790;9.620;2022-12-11T01:19:30;-1.00;1.00
19242;DHT22;9755;47.790;9.620;2022-12-11T01:21:57;-1.00;1.00
19242;DHT22;9755;47.790;9.620;2022-12-11T01:24:25;-1.00;1.00
19242;DHT22;9755;47.790;9.620;2022-12-11T01:26:52;-1.00;1.00
19242;DHT22;9755;47.790;9.620;2022-12-11T01:29:19;-1.00;1.00
19242;DHT22;9755;47.790;9.620;2022-12-11T01:31:46;-1.00;1.00
19242;DHT22;9755;47.790;9.620;2022-12-11T01:34:14;-0.90;1.00
19242;DHT22;9755;47.790;9.620;2022-12-11T01:36:41;-1.00;1.00
19242;DHT22;9755;47.790;9.620;2022-12-11T01:39:08;-1.00;1.00
19242;DHT22;9755;47.790;9.620;2022-12-11T01:41:35;-0.90;1.00
19242;DHT22;9755;47.790;9.620;2022-12-11T01:44:04;-0.90;1.00
19242;DHT22;9755;47.790;9.620;2022-12-11T01:46:34;-0.90;1.00
19242;DHT22;9755;47.790;9.620;2022-12-11T01:49:04;-1.00;1.00
19242;DHT22;9755;47.790;9.620;2022-12-11T01:51:38;-1.00;1.00
19242;DHT22;9755;47.790;9.620;2022-12-11T01:54:09;-1.00;1.00
19242;DHT22;9755;47.790;9.620;2022-12-11T01:56:39;-1.00;1.00
19242;DHT22;9755;47.790;9.620;2022-12-11T01:59:08;-1.00;1.00
19242;DHT22;9755;47.790;9.620;2022-12-11T02:01:39;-1.00;1.00
19242;DHT22;9755;47.790;9.620;2022-12-11T02:04:07;-1.10;1.00
19242;DHT22;9755;47.790;9.620;2022-12-11T02:06:38;-1.10;1.00
19242;DHT22;9755;47.790;9.620;2022-12-11T02:09:08;-1.10;1.00
19242;DHT22;9755;47.790;9.620;2022-12-11T02:11:46;-1.00;1.00
19242;DHT22;9755;47.790;9.620;2022-12-11T02:14:21;-1.00;1.00
19242;DHT22;9755;47.790;9.620;2022-12-11T02:16:55;-1.00;1.00
19242;DHT22;9755;47.790;9.620;2022-12-11T02:19:42;-0.90;1.00
19242;DHT22;9755;47.790;9.620;2022-12-11T02:22:14;-1.00;1.00
19242;DHT22;9755;47.790;9.620;2022-12-11T02:25:00;-1.10;1.00
19242;DHT22;9755;47.790;9.620;2022-12-11T02:27:34;-1.00;1.00
19242;DHT22;9755;47.790;9.620;2022-12-11T02:30:06;-1.00;1.00
19242;DHT22;9755;47.790;9.620;2022-12-11T02:32:37;-1.10;1.00
19242;DHT22;9755;47.790;9.620;2022-12-11T02:35:09;-1.00;1.00
19242;DHT22;9755;47.790;9.620;2022-12-11T02:37:40;-1.00;1.00
19242;DHT22;9755;47.790;9.620;2022-12-11T02:40:11;-1.00;1.00
19242;DHT22;9755;47.790;9.620;2022-12-11T02:42:40;-1.00;1.00
19242;DHT22;9755;47.790;9.620;2022-12-11T02:45:11;-1.10;1.00
19242;DHT22;9755;47.790;9.620;2022-12-11T02:47:38;-1.10;1.00
19242;DHT22;9755;47.790;9.620;2022-12-11T02:50:08;-1.00;1.00
19242;DHT22;9755;47.790;9.620;2022-12-11T02:52:36;-1.00;1.00
19242;DHT22;9755;47.790;9.620;2022-12-11T02:55:05;-1.00;1.00
19242;DHT22;9755;47.790;9.620;2022-12-11T02:57:38;-1.00;1.00
19242;DHT22;9755;47.790;9.620;2022-12-11T03:00:10;-1.00;1.00
19242;DHT22;9755;47.790;9.620;2022-12-11T03:02:38;-0.90;1.00
19242;DHT22;9755;47.790;9.620;2022-12-11T03:05:08;-1.00;1.00
19242;DHT22;9755;47.790;9.620;2022-12-11T03:07:37;-1.00;1.00
19242;DHT22;9755;47.790;9.620;2022-12-11T03:10:07;-1.10;1.00
19242;DHT22;9755;47.790;9.620;2022-12-11T03:12:37;-1.20;1.00
19242;DHT22;9755;47.790;9.620;2022-12-11T03:15:07;-1.20;1.00
19242;DHT22;9755;47.790;9.620;2022-12-11T03:17:44;-1.40;1.00
19242;DHT22;9755;47.790;9.620;2022-12-11T03:20:19;-1.40;1.00
19242;DHT22;9755;47.790;9.620;2022-12-11T03:22:54;-1.60;1.00
19242;DHT22;9755;47.790;9.620;2022-12-11T03:25:28;-1.70;1.00
19242;DHT22;9755;47.790;9.620;2022-12-11T03:28:03;-1.80;1.00
19242;DHT22;9755;47.790;9.620;2022-12-11T03:30:35;-1.90;1.00
19242;DHT22;9755;47.790;9.620;2022-12-11T03:33:07;-2.00;1.00
19242;DHT22;9755;47.790;9.620;2022-12-11T03:35:38;-2.10;1.00
19242;DHT22;9755;47.790;9.620;2022-12-11T03:38:08;-2.30;1.00
19242;DHT22;9755;47.790;9.620;2022-12-11T03:40:39;-2.30;1.00
19242;DHT22;9755;47.790;9.620;2022-12-11T03:43:10;-2.40;1.00
19242;DHT22;9755;47.790;9.620;2022-12-11T03:45:38;-2.50;1.00
19242;DHT22;9755;47.790;9.620;2022-12-11T03:48:08;-2.50;1.00
19242;DHT22;9755;47.790;9.620;2022-12-11T03:50:36;-2.60;1.00
19242;DHT22;9755;47.790;9.620;2022-12-11T03:53:04;-2.60;1.00
19242;DHT22;9755;47.790;9.620;2022-12-11T03:55:32;-2.60;1.00
19242;DHT22;9755;47.790;9.620;2022-12-11T03:57:59;-2.60;1.00
19242;DHT22;9755;47.790;9.620;2022-12-11T04:00:27;-2.50;1.00
19242;DHT22;9755;47.790;9.620;2022-12-11T04:02:55;-2.50;17.60
19242;DHT22;9755;47.790;9.620;2022-12-11T04:05:43;-2.50;81.20
19242;DHT22;9755;47.790;9.620;2022-12-11T04:08:11;-2.50;99.90
19242;DHT22;9755;47.790;9.620;2022-12-11T04:10:39;-2.50;99.90
19242;DHT22;9755;47.790;9.620;2022-12-11T04:13:06;-2.50;99.90
19242;DHT22;9755;47.790;9.620;2022-12-11T04:15:34;-2.60;99.90
19242;DHT22;9755;47.790;9.620;2022-12-11T04:18:01;-2.70;99.90
19242;DHT22;9755;47.790;9.620;2022-12-11T04:20:47;-2.90;99.90
19242;DHT22;9755;47.790;9.620;2022-12-11T04:23:31;-3.00;93.10
19242;DHT22;9755;47.790;9.620;2022-12-11T04:26:17;-3.10;85.90
19242;DHT22;9755;47.790;9.620;2022-12-11T04:28:47;-3.10;94.80
19242;DHT22;9755;47.790;9.620;2022-12-11T04:31:15;-3.10;99.90
19242;DHT22;9755;47.790;9.620;2022-12-11T04:33:43;-3.20;99.90
19242;DHT22;9755;47.790;9.620;2022-12-11T04:36:12;-3.20;99.90
19242;DHT22;9755;47.790;9.620;2022-12-11T04:38:40;-3.20;99.90
19242;DHT22;9755;47.790;9.620;2022-12-11T04:41:09;-3.20;99.90
19242;DHT22;9755;47.790;9.620;2022-12-11T04:43:36;-3.00;99.90
19242;DHT22;9755;47.790;9.620;2022-12-11T04:46:05;-2.90;99.90
19242;DHT22;9755;47.790;9.620;2022-12-11T04:48:33;-2.90;99.90
19242;DHT22;9755;47.790;9.620;2022-12-11T04:51:00;-2.80;99.90
19242;DHT22;9755;47.790;9.620;2022-12-11T04:53:29;-2.80;99.90
19242;DHT22;9755;47.790;9.620;2022-12-11T04:55:56;-2.90;99.90
19242;DHT22;9755;47.790;9.620;2022-12-11T04:58:24;-2.90;99.90
19242;DHT22;9755;47.790;9.620;2022-12-11T05:00:51;-2.90;99.90
19242;DHT22;9755;47.790;9.620;2022-12-11T05:03:19;-3.10;99.90
19242;DHT22;9755;47.790;9.620;2022-12-11T05:05:50;-3.20;99.90
19242;DHT22;9755;47.790;9.620;2022-12-11T05:08:18;-3.30;99.90
19242;DHT22;9755;47.790;9.620;2022-12-11T05:10:55;-3.30;99.90
19242;DHT22;9755;47.790;9.620;2022-12-11T05:13:23;-3.30;99.90
19242;DHT22;9755;47.790;9.620;2022-12-11T05:15:50;-3.30;99.90
19242;DHT22;9755;47.790;9.620;2022-12-11T05:18:17;-3.20;99.90
19242;DHT22;9755;47.790;9.620;2022-12-11T05:20:44;-3.30;99.90
19242;DHT22;9755;47.790;9.620;2022-12-11T05:23:11;-3.30;99.90
19242;DHT22;9755;47.790;9.620;2022-12-11T05:25:38;-3.30;99.90
19242;DHT22;9755;47.790;9.620;2022-12-11T05:28:07;-3.40;99.90
19242;DHT22;9755;47.790;9.620;2022-12-11T05:30:34;-3.40;99.90
19242;DHT22;9755;47.790;9.620;2022-12-11T05:33:01;-3.40;99.90
19242;DHT22;9755;47.790;9.620;2022-12-11T05:35:28;-3.50;99.90
19242;DHT22;9755;47.790;9.620;2022-12-11T05:37:55;-3.40;99.90
19242;DHT22;9755;47.790;9.620;2022-12-11T05:40:24;-3.50;99.90
19242;DHT22;9755;47.790;9.620;2022-12-11T05:42:51;-3.50;99.90
19242;DHT22;9755;47.790;9.620;2022-12-11T05:45:20;-3.50;99.90
19242;DHT22;9755;47.790;9.620;2022-12-11T05:47:47;-3.60;99.90
19242;DHT22;9755;47.790;9.620;2022-12-11T05:50:14;-3.60;99.90
19242;DHT22;9755;47.790;9.620;2022-12-11T05:52:42;-3.60;99.90
19242;DHT22;9755;47.790;9.620;2022-12-11T05:55:09;-3.60;99.90
19242;DHT22;9755;47.790;9.620;2022-12-11T05:57:36;-3.60;99.90
19242;DHT22;9755;47.790;9.620;2022-12-11T06:00:05;-3.60;99.90
19242;DHT22;9755;47.790;9.620;2022-12-11T06:02:35;-3.70;99.90
19242;DHT22;9755;47.790;9.620;2022-12-11T06:05:02;-3.70;99.90
19242;DHT22;9755;47.790;9.620;2022-12-11T06:07:29;-3.80;99.90
19242;DHT22;9755;47.790;9.620;2022-12-11T06:09:56;-3.80;99.90
19242;DHT22;9755;47.790;9.620;2022-12-11T06:12:23;-3.80;99.90
19242;DHT22;9755;47.790;9.620;2022-12-11T06:14:50;-3.80;99.90
19242;DHT22;9755;47.790;9.620;2022-12-11T06:17:17;-3.90;99.90
19242;DHT22;9755;47.790;9.620;2022-12-11T06:19:46;-3.90;99.90
19242;DHT22;9755;47.790;9.620;2022-12-11T06:22:13;-3.90;99.90
19242;DHT22;9755;47.790;9.620;2022-12-11T06:24:40;-3.80;99.90
19242;DHT22;9755;47.790;9.620;2022-12-11T06:27:07;-3.90;99.90
19242;DHT22;9755;47.790;9.620;2022-12-11T06:29:34;-4.00;99.90
19242;DHT22;9755;47.790;9.620;2022-12-11T06:32:01;-4.10;99.90
19242;DHT22;9755;47.790;9.620;2022-12-11T06:34:28;-4.10;99.90
19242;DHT22;9755;47.790;9.620;2022-12-11T06:36:57;-4.20;95.50
19242;DHT22;9755;47.790;9.620;2022-12-11T06:39:24;-4.30;91.30
19242;DHT22;9755;47.790;9.620;2022-12-11T06:41:51;-4.30;99.90
19242;DHT22;9755;47.790;9.620;2022-12-11T06:44:18;-4.30;99.90
19242;DHT22;9755;47.790;9.620;2022-12-11T06:46:45;-4.30;99.90
19242;DHT22;9755;47.790;9.620;2022-12-11T06:49:12;-4.40;99.90
19242;DHT22;9755;47.790;9.620;2022-12-11T06:51:40;-4.40;99.90
19242;DHT22;9755;47.790;9.620;2022-12-11T06:54:08;-4.40;99.90
19242;DHT22;9755;47.790;9.620;2022-12-11T06:56:35;-4.40;99.90
19242;DHT22;9755;47.790;9.620;2022-12-11T06:59:02;-4.50;99.90
19242;DHT22;9755;47.790;9.620;2022-12-11T07:01:29;-4.50;99.90
19242;DHT22;9755;47.790;9.620;2022-12-11T07:03:58;-4.60;99.90
19242;DHT22;9755;47.790;9.620;2022-12-11T07:06:26;-4.60;99.90
19242;DHT22;9755;47.790;9.620;2022-12-11T07:08:54;-4.80;99.90
19242;DHT22;9755;47.790;9.620;2022-12-11T07:11:23;-4.90;78.40
19242;DHT22;9755;47.790;9.620;2022-12-11T07:13:50;-4.90;82.60
19242;DHT22;9755;47.790;9.620;2022-12-11T07:16:17;-5.00;77.80
19242;DHT22;9755;47.790;9.620;2022-12-11T07:18:47;-4.90;99.90
19242;DHT22;9755;47.790;9.620;2022-12-11T07:21:15;-4.90;99.90
19242;DHT22;9755;47.790;9.620;2022-12-11T07:23:42;-4.90;99.90
19242;DHT22;9755;47.790;9.620;2022-12-11T07:26:11;-4.80;99.90
19242;DHT22;9755;47.790;9.620;2022-12-11T07:28:41;-4.80;99.90
19242;DHT22;9755;47.790;9.620;2022-12-11T07:31:10;-4.80;99.90
19242;DHT22;9755;47.790;9.620;2022-12-11T07:33:37;-4.90;99.90
19242;DHT22;9755;47.790;9.620;2022-12-11T07:36:07;-4.90;99.90
19242;DHT22;9755;47.790;9.620;2022-12-11T07:38:35;-4.90;99.90
19242;DHT22;9755;47.790;9.620;2022-12-11T07:41:03;-4.90;94.10
19242;DHT22;9755;47.790;9.620;2022-12-11T07:43:31;-4.90;63.80
19242;DHT22;9755;47.790;9.620;2022-12-11T07:46:01;-4.90;11.60
19242;DHT22;9755;47.790;9.620;2022-12-11T07:48:29;-4.80;1.00
19242;DHT22;9755;47.790;9.620;2022-12-11T07:51:06;-4.80;1.00
19242;DHT22;9755;47.790;9.620;2022-12-11T07:53:34;-4.80;1.00
19242;DHT22;9755;47.790;9.620;2022-12-11T07:56:01;-4.80;1.00
19242;DHT22;9755;47.790;9.620;2022-12-11T07:58:28;-4.80;1.00
19242;DHT22;9755;47.790;9.620;2022-12-11T08:00:55;-4.80;1.00
19242;DHT22;9755;47.790;9.620;2022-12-11T08:03:24;-4.80;1.00
19242;DHT22;9755;47.790;9.620;2022-12-11T08:05:51;-4.70;1.00
19242;DHT22;9755;47.790;9.620;2022-12-11T08:08:19;-4.60;1.00
19242;DHT22;9755;47.790;9.620;2022-12-11T08:10:46;-4.60;99.90
19242;DHT22;9755;47.790;9.620;2022-12-11T08:13:13;-4.60;99.90
19242;DHT22;9755;47.790;9.620;2022-12-11T08:15:41;-4.50;99.90
19242;DHT22;9755;47.790;9.620;2022-12-11T08:18:08;-4.40;1.00
19242;DHT22;9755;47.790;9.620;2022-12-11T08:20:38;-4.40;1.00
19242;DHT22;9755;47.790;9.620;2022-12-11T08:23:05;-4.30;1.00
19242;DHT22;9755;47.790;9.620;2022-12-11T08:25:32;-4.20;1.00
19242;DHT22;9755;47.790;9.620;2022-12-11T08:27:59;-4.20;1.00
19242;DHT22;9755;47.790;9.620;2022-12-11T08:30:26;-4.10;1.00
19242;DHT22;9755;47.790;9.620;2022-12-11T08:32:53;-4.20;99.90
19242;DHT22;9755;47.790;9.620;2022-12-11T08:35:20;-4.10;99.90
19242;DHT22;9755;47.790;9.620;2022-12-11T08:37:49;-4.00;99.90
19242;DHT22;9755;47.790;9.620;2022-12-11T08:40:16;-4.00;99.90
19242;DHT22;9755;47.790;9.620;2022-12-11T08:42:43;-3.90;99.90
19242;DHT22;9755;47.790;9.620;2022-12-11T08:45:10;-3.80;91.80
19242;DHT22;9755;47.790;9.620;2022-12-11T08:47:37;-3.80;1.00
19242;DHT22;9755;47.790;9.620;2022-12-11T08:50:05;-3.70;1.00
19242;DHT22;9755;47.790;9.620;2022-12-11T08:52:33;-3.60;1.00
19242;DHT22;9755;47.790;9.620;2022-12-11T08:55:02;-3.50;1.00
19242;DHT22;9755;47.790;9.620;2022-12-11T08:57:29;-3.30;1.00
19242;DHT22;9755;47.790;9.620;2022-12-11T08:59:56;-3.10;1.00
19242;DHT22;9755;47.790;9.620;2022-12-11T09:02:23;-2.30;1.00
19242;DHT22;9755;47.790;9.620;2022-12-11T09:04:50;-1.60;1.00
19242;DHT22;9755;47.790;9.620;2022-12-11T09:07:17;-1.30;1.00
19242;DHT22;9755;47.790;9.620;2022-12-11T09:09:44;-1.10;1.00
19242;DHT22;9755;47.790;9.620;2022-12-11T09:12:13;-0.70;89.20
19242;DHT22;9755;47.790;9.620;2022-12-11T09:14:40;-0.60;1.00
19242;DHT22;9755;47.790;9.620;2022-12-11T09:17:07;-0.60;1.00
19242;DHT22;9755;47.790;9.620;2022-12-11T09:19:34;-0.90;99.90
19242;DHT22;9755;47.790;9.620;2022-12-11T09:22:01;-1.20;1.00
19242;DHT22;9755;47.790;9.620;2022-12-11T09:24:28;-1.30;1.00
19242;DHT22;9755;47.790;9.620;2022-12-11T09:26:55;-1.20;1.00
19242;DHT22;9755;47.790;9.620;2022-12-11T09:29:24;-1.00;1.00
19242;DHT22;9755;47.790;9.620;2022-12-11T09:31:51;-1.10;99.90
19242;DHT22;9755;47.790;9.620;2022-12-11T09:34:19;-1.10;99.90
19242;DHT22;9755;47.790;9.620;2022-12-11T09:36:46;-0.20;1.00
19242;DHT22;9755;47.790;9.620;2022-12-11T09:39:15;0.90;99.90
19242;DHT22;9755;47.790;9.620;2022-12-11T09:41:48;2.00;1.00
19242;DHT22;9755;47.790;9.620;2022-12-11T09:47:16;3.70;99.90
19242;DHT22;9755;47.790;9.620;2022-12-11T09:49:46;4.00;99.90
19242;DHT22;9755;47.790;9.620;2022-12-11T09:52:19;4.10;99.90
19242;DHT22;9755;47.790;9.620;2022-12-11T09:54:49;4.50;99.90
19242;DHT22;9755;47.790;9.620;2022-12-11T09:57:30;3.90;1.00
19242;DHT22;9755;47.790;9.620;2022-12-11T10:00:11;3.30;1.00
19242;DHT22;9755;47.790;9.620;2022-12-11T10:02:56;3.90;99.90
19242;DHT22;9755;47.790;9.620;2022-12-11T10:05:31;4.60;22.60
19242;DHT22;9755;47.790;9.620;2022-12-11T10:08:05;5.20;1.00
19242;DHT22;9755;47.790;9.620;2022-12-11T10:10:41;5.80;1.00
19242;DHT22;9755;47.790;9.620;2022-12-11T10:13:15;6.30;1.00
19242;DHT22;9755;47.790;9.620;2022-12-11T10:15:51;7.00;1.00
19242;DHT22;9755;47.790;9.620;2022-12-11T10:18:23;7.40;1.00
19242;DHT22;9755;47.790;9.620;2022-12-11T10:20:53;6.80;1.00
19242;DHT22;9755;47.790;9.620;2022-12-11T10:23:23;6.60;1.00
19242;DHT22;9755;47.790;9.620;2022-12-11T10:25:57;6.70;1.00
19242;DHT22;9755;47.790;9.620;2022-12-11T10:28:27;6.20;1.00
19242;DHT22;9755;47.790;9.620;2022-12-11T10:30:59;6.50;1.00
19242;DHT22;9755;47.790;9.620;2022-12-11T10:33:35;5.60;1.00
19242;DHT22;9755;47.790;9.620;2022-12-11T10:36:07;3.60;1.00
19242;DHT22;9755;47.790;9.620;2022-12-11T10:38:39;4.50;1.00
19242;DHT22;9755;47.790;9.620;2022-12-11T10:41:11;5.20;1.00
19242;DHT22;9755;47.790;9.620;2022-12-11T10:43:40;5.50;1.00
19242;DHT22;9755;47.790;9.620;2022-12-11T10:46:15;5.10;1.00
19242;DHT22;9755;47.790;9.620;2022-12-11T10:48:49;5.60;1.00
19242;DHT22;9755;47.790;9.620;2022-12-11T10:51:18;6.10;1.00
19242;DHT22;9755;47.790;9.620;2022-12-11T10:53:49;6.40;1.00
19242;DHT22;9755;47.790;9.620;2022-12-11T10:56:24;6.50;1.00
19242;DHT22;9755;47.790;9.620;2022-12-11T10:58:52;6.30;1.00
19242;DHT22;9755;47.790;9.620;2022-12-11T11:01:21;6.30;1.00
19242;DHT22;9755;47.790;9.620;2022-12-11T11:03:56;6.60;1.00
19242;DHT22;9755;47.790;9.620;2022-12-11T11:06:26;6.70;1.00
19242;DHT22;9755;47.790;9.620;2022-12-11T11:08:55;7.00;1.00
19242;DHT22;9755;47.790;9.620;2022-12-11T11:11:26;6.50;1.00
19242;DHT22;9755;47.790;9.620;2022-12-11T11:14:06;6.20;1.00
19242;DHT22;9755;47.790;9.620;2022-12-11T11:16:35;6.00;1.00
19242;DHT22;9755;47.790;9.620;2022-12-11T11:19:05;5.60;1.00
19242;DHT22;9755;47.790;9.620;2022-12-11T11:21:33;5.70;1.00
19242;DHT22;9755;47.790;9.620;2022-12-11T11:24:02;5.70;1.00
19242;DHT22;9755;47.790;9.620;2022-12-11T11:26:31;6.10;1.00
19242;DHT22;9755;47.790;9.620;2022-12-11T11:28:59;6.60;1.00
19242;DHT22;9755;47.790;9.620;2022-12-11T11:31:31;6.60;1.00
19242;DHT22;9755;47.790;9.620;2022-12-11T11:34:07;6.60;1.00
19242;DHT22;9755;47.790;9.620;2022-12-11T11:36:36;6.60;1.00
19242;DHT22;9755;47.790;9.620;2022-12-11T11:39:12;6.70;1.00
19242;DHT22;9755;47.790;9.620;2022-12-11T11:41:48;6.90;1.00
19242;DHT22;9755;47.790;9.620;2022-12-11T11:44:22;7.20;1.00
19242;DHT22;9755;47.790;9.620;2022-12-11T11:46:57;7.30;1.00
19242;DHT22;9755;47.790;9.620;2022-12-11T11:49:43;7.10;1.00
19242;DHT22;9755;47.790;9.620;2022-12-11T11:52:14;7.00;1.00
19242;DHT22;9755;47.790;9.620;2022-12-11T11:54:48;7.10;1.00
19242;DHT22;9755;47.790;9.620;2022-12-11T11:57:24;6.90;1.00
19242;DHT22;9755;47.790;9.620;2022-12-11T11:59:57;6.90;1.00
19242;DHT22;9755;47.790;9.620;2022-12-11T12:02:32;6.70;1.00
19242;DHT22;9755;47.790;9.620;2022-12-11T12:05:01;6.70;1.00
19242;DHT22;9755;47.790;9.620;2022-12-11T12:07:36;7.00;1.00
19242;DHT22;9755;47.790;9.620;2022-12-11T12:10:13;6.60;1.00
19242;DHT22;9755;47.790;9.620;2022-12-11T12:12:46;5.50;1.00
19242;DHT22;9755;47.790;9.620;2022-12-11T12:15:28;5.60;1.00
19242;DHT22;9755;47.790;9.620;2022-12-11T12:18:04;5.70;1.00
19242;DHT22;9755;47.790;9.620;2022-12-11T12:20:42;6.30;1.00
19242;DHT22;9755;47.790;9.620;2022-12-11T12:23:34;6.40;1.00
19242;DHT22;9755;47.790;9.620;2022-12-11T12:26:09;6.80;1.00
19242;DHT22;9755;47.790;9.620;2022-12-11T12:28:43;6.10;1.00
19242;DHT22;9755;47.790;9.620;2022-12-11T12:31:29;6.20;1.00
19242;DHT22;9755;47.790;9.620;2022-12-11T12:34:03;6.20;1.00
19242;DHT22;9755;47.790;9.620;2022-12-11T12:36:40;6.20;1.00
19242;DHT22;9755;47.790;9.620;2022-12-11T12:39:15;6.00;1.00
19242;DHT22;9755;47.790;9.620;2022-12-11T12:41:52;6.20;1.00
19242;DHT22;9755;47.790;9.620;2022-12-11T12:44:23;6.10;1.00
19242;DHT22;9755;47.790;9.620;2022-12-11T12:46:56;6.10;1.00
19242;DHT22;9755;47.790;9.620;2022-12-11T12:49:37;5.80;1.00
19242;DHT22;9755;47.790;9.620;2022-12-11T12:52:12;5.10;1.00
19242;DHT22;9755;47.790;9.620;2022-12-11T12:54:44;4.70;1.00
19242;DHT22;9755;47.790;9.620;2022-12-11T12:57:29;4.10;1.00
19242;DHT22;9755;47.790;9.620;2022-12-11T12:59:59;3.50;1.00
19242;DHT22;9755;47.790;9.620;2022-12-11T13:02:29;3.80;1.00
19242;DHT22;9755;47.790;9.620;2022-12-11T13:05:03;4.00;1.00
19242;DHT22;9755;47.790;9.620;2022-12-11T13:07:35;4.20;1.00
19242;DHT22;9755;47.790;9.620;2022-12-11T13:10:21;3.70;1.00
19242;DHT22;9755;47.790;9.620;2022-12-11T13:12:51;3.40;1.00
19242;DHT22;9755;47.790;9.620;2022-12-11T13:15:40;3.40;1.00
19242;DHT22;9755;47.790;9.620;2022-12-11T13:18:43;3.40;1.00
19242;DHT22;9755;47.790;9.620;2022-12-11T13:21:28;3.40;1.00
19242;DHT22;9755;47.790;9.620;2022-12-11T13:24:24;3.40;1.00
19242;DHT22;9755;47.790;9.620;2022-12-11T13:26:51;3.30;1.00
19242;DHT22;9755;47.790;9.620;2022-12-11T13:29:32;3.20;1.00
19242;DHT22;9755;47.790;9.620;2022-12-11T13:32:00;3.00;1.00
19242;DHT22;9755;47.790;9.620;2022-12-11T13:34:32;2.60;1.00
19242;DHT22;9755;47.790;9.620;2022-12-11T13:37:01;2.70;1.00
19242;DHT22;9755;47.790;9.620;2022-12-11T13:39:33;2.50;1.00
19242;DHT22;9755;47.790;9.620;2022-12-11T13:42:05;2.20;1.00
19242;DHT22;9755;47.790;9.620;2022-12-11T13:47:40;2.00;1.00
19242;DHT22;9755;47.790;9.620;2022-12-11T13:50:14;2.10;1.00
19242;DHT22;9755;47.790;9.620;2022-12-11T13:52:52;2.00;1.00
19242;DHT22;9755;47.790;9.620;2022-12-11T13:55:25;1.80;1.00
19242;DHT22;9755;47.790;9.620;2022-12-11T13:57:52;1.60;1.00
19242;DHT22;9755;47.790;9.620;2022-12-11T14:00:22;1.50;1.00
19242;DHT22;9755;47.790;9.620;2022-12-11T14:02:55;1.50;1.00
19242;DHT22;9755;47.790;9.620;2022-12-11T14:05:28;1.30;1.00
19242;DHT22;9755;47.790;9.620;2022-12-11T14:08:06;1.30;1.00
19242;DHT22;9755;47.790;9.620;2022-12-11T14:10:36;1.40;1.00
19242;DHT22;9755;47.790;9.620;2022-12-11T14:13:05;1.20;1.00
19242;DHT22;9755;47.790;9.620;2022-12-11T14:15:38;1.20;1.00
19242;DHT22;9755;47.790;9.620;2022-12-11T14:18:14;1.10;1.00
19242;DHT22;9755;47.790;9.620;2022-12-11T14:20:43;1.20;1.00
19242;DHT22;9755;47.790;9.620;2022-12-11T14:23:17;1.10;1.00
19242;DHT22;9755;47.790;9.620;2022-12-11T14:25:55;0.80;1.00
19242;DHT22;9755;47.790;9.620;2022-12-11T14:28:25;0.60;1.00
19242;DHT22;9755;47.790;9.620;2022-12-11T14:31:21;0.60;1.00
19242;DHT22;9755;47.790;9.620;2022-12-11T14:33:57;0.40;1.00
19242;DHT22;9755;47.790;9.620;2022-12-11T14:36:27;0.20;1.00
19242;DHT22;9755;47.790;9.620;2022-12-11T14:39:05;0.20;1.00
19242;DHT22;9755;47.790;9.620;2022-12-11T14:41:44;0.40;1.00
19242;DHT22;9755;47.790;9.620;2022-12-11T14:44:15;0.40;1.00
19242;DHT22;9755;47.790;9.620;2022-12-11T14:46:44;0.30;1.00
19242;DHT22;9755;47.790;9.620;2022-12-11T14:49:18;0.10;1.00
19242;DHT22;9755;47.790;9.620;2022-12-11T14:52:08;-0.10;1.00
19242;DHT22;9755;47.790;9.620;2022-12-11T14:54:42;-0.30;1.00
19242;DHT22;9755;47.790;9.620;2022-12-11T14:57:24;-0.60;1.00
19242;DHT22;9755;47.790;9.620;2022-12-11T14:59:56;-0.70;1.00
19242;DHT22;9755;47.790;9.620;2022-12-11T15:02:30;-0.90;99.60
19242;DHT22;9755;47.790;9.620;2022-12-11T15:08:20;-1.10;1.00
19242;DHT22;9755;47.790;9.620;2022-12-11T15:11:03;-1.00;1.00
19242;DHT22;9755;47.790;9.620;2022-12-11T15:13:54;-1.20;1.00
19242;DHT22;9755;47.790;9.620;2022-12-11T15:16:32;-1.40;1.00
19242;DHT22;9755;47.790;9.620;2022-12-11T15:19:13;-1.60;1.00
19242;DHT22;9755;47.790;9.620;2022-12-11T15:21:42;-1.60;1.00
19242;DHT22;9755;47.790;9.620;2022-12-11T15:24:32;-1.70;1.00
19242;DHT22;9755;47.790;9.620;2022-12-11T15:27:22;-1.80;99.90
19242;DHT22;9755;47.790;9.620;2022-12-11T15:29:51;-2.10;99.90
19242;DHT22;9755;47.790;9.620;2022-12-11T15:32:22;-2.20;1.00
19242;DHT22;9755;47.790;9.620;2022-12-11T15:34:53;-2.20;1.00
19242;DHT22;9755;47.790;9.620;2022-12-11T15:37:25;-2.20;1.00
19242;DHT22;9755;47.790;9.620;2022-12-11T15:39:53;-2.30;1.00
19242;DHT22;9755;47.790;9.620;2022-12-11T15:42:30;-2.30;1.00
19242;DHT22;9755;47.790;9.620;2022-12-11T15:45:13;-2.40;1.00
19242;DHT22;9755;47.790;9.620;2022-12-11T15:47:44;-2.50;1.00
19242;DHT22;9755;47.790;9.620;2022-12-11T15:50:15;-2.60;1.00
19242;DHT22;9755;47.790;9.620;2022-12-11T15:52:47;-2.70;1.00
19242;DHT22;9755;47.790;9.620;2022-12-11T15:55:15;-2.80;99.90
19242;DHT22;9755;47.790;9.620;2022-12-11T15:57:48;-3.00;1.00
19242;DHT22;9755;47.790;9.620;2022-12-11T16:00:23;-3.10;1.00
19242;DHT22;9755;47.790;9.620;2022-12-11T16:02:56;-3.20;18.80
19242;DHT22;9755;47.790;9.620;2022-12-11T16:05:25;-3.20;99.90
19242;DHT22;9755;47.790;9.620;2022-12-11T16:07:53;-3.20;1.00
19242;DHT22;9755;47.790;9.620;2022-12-11T16:10:24;-3.30;1.00
19242;DHT22;9755;47.790;9.620;2022-12-11T16:12:52;-3.30;1.00
19242;DHT22;9755;47.790;9.620;2022-12-11T16:15:26;-3.30;1.00
19242;DHT22;9755;47.790;9.620;2022-12-11T16:17:59;-3.40;1.00
19242;DHT22;9755;47.790;9.620;2022-12-11T16:20:26;-3.50;99.90
19242;DHT22;9755;47.790;9.620;2022-12-11T16:22:53;-3.50;1.00
19242;DHT22;9755;47.790;9.620;2022-12-11T16:25:20;-3.50;1.00
19242;DHT22;9755;47.790;9.620;2022-12-11T16:27:47;-3.60;99.90
19242;DHT22;9755;47.790;9.620;2022-12-11T16:30:14;-3.70;99.90
19242;DHT22;9755;47.790;9.620;2022-12-11T16:32:43;-3.70;1.00
19242;DHT22;9755;47.790;9.620;2022-12-11T16:35:10;-3.70;99.90